sensor_id;sensor_type;location;lat;lon;timestamp;P1;durP1;ratioP1;P2;durP2;ratioP2
47519;SDS011;33252;48.122;11.538;2023-02-26T00:01:26;2.20;;;1.13;;
47519;SDS011;33252;48.122;11.538;2023-02-26T00:03:56;2.38;;;1.27;;
47519;SDS011;33252;48.122;11.538;2023-02-26T00:06:25;2.08;;;1.33;;
47519;SDS011;33252;48.122;11.538;2023-02-26T00:08:51;2.38;;;1.35;;
47519;SDS011;33252;48.122;11.538;2023-02-26T00:11:17;2.75;;;1.67;;
47519;SDS011;33252;48.122;11.538;2023-02-26T00:13:44;3.97;;;1.98;;
47519;SDS011;33252;48.122;11.538;2023-02-26T00:16:33;5.35;;;2.08;;
47519;SDS011;33252;48.122;11.538;2023-02-26T00:18:59;4.03;;;2.25;;
47519;SDS011;33252;48.122;11.538;2023-02-26T00:21:26;4.10;;;1.83;;
47519;SDS011;33252;48.122;11.538;2023-02-26T00:23:53;4.65;;;2.20;;
47519;SDS011;33252;48.122;11.538;2023-02-26T00:26:20;2.60;;;1.92;;
47519;SDS011;33252;48.122;11.538;2023-02-26T00:28:47;3.00;;;2.45;;
47519;SDS011;33252;48.122;11.538;2023-02-26T00:31:14;4.03;;;2.25;;
47519;SDS011;33252;48.122;11.538;2023-02-26T00:33:41;2.60;;;1.63;;
47519;SDS011;33252;48.122;11.538;2023-02-26T00:38:46;2.17;;;1.52;;
47519;SDS011;33252;48.122;11.538;2023-02-26T00:41:24;2.72;;;1.80;;
47519;SDS011;33252;48.122;11.538;2023-02-26T00:43:50;3.75;;;2.05;;
47519;SDS011;33252;48.122;11.538;2023-02-26T00:49:23;2.47;;;1.50;;
47519;SDS011;33252;48.122;11.538;2023-02-26T00:52:28;2.28;;;2.08;;
47519;SDS011;33252;48.122;11.538;2023-02-26T00:55:01;3.70;;;2.15;;
47519;SDS011;33252;48.122;11.538;2023-02-26T00:57:27;4.75;;;2.15;;
47519;SDS011;33252;48.122;11.538;2023-02-26T00:59:53;2.90;;;2.05;;
47519;SDS011;33252;48.122;11.538;2023-02-26T01:02:18;2.33;;;1.63;;
47519;SDS011;33252;48.122;11.538;2023-02-26T01:04:44;4.35;;;1.50;;
47519;SDS011;33252;48.122;11.538;2023-02-26T01:07:12;4.68;;;2.65;;
47519;SDS011;33252;48.122;11.538;2023-02-26T01:09:39;2.05;;;1.23;;
47519;SDS011;33252;48.122;11.538;2023-02-26T01:12:06;2.63;;;1.80;;
47519;SDS011;33252;48.122;11.538;2023-02-26T01:14:34;2.40;;;1.42;;
47519;SDS011;33252;48.122;11.538;2023-02-26T01:17:11;1.67;;;1.40;;
47519;SDS011;33252;48.122;11.538;2023-02-26T01:25:29;2.17;;;1.30;;
47519;SDS011;33252;48.122;11.538;2023-02-26T01:28:05;3.00;;;1.52;;
47519;SDS011;33252;48.122;11.538;2023-02-26T01:30:31;2.30;;;1.45;;
47519;SDS011;33252;48.122;11.538;2023-02-26T01:41:15;4.15;;;1.83;;
47519;SDS011;33252;48.122;11.538;2023-02-26T01:43:59;1.90;;;1.15;;
47519;SDS011;33252;48.122;11.538;2023-02-26T01:47:09;3.25;;;1.52;;
47519;SDS011;33252;48.122;11.538;2023-02-26T01:49:38;2.97;;;1.30;;
47519;SDS011;33252;48.122;11.538;2023-02-26T01:52:05;3.33;;;1.20;;
47519;SDS011;33252;48.122;11.538;2023-02-26T01:54:51;2.47;;;1.30;;
47519;SDS011;33252;48.122;11.538;2023-02-26T01:57:17;3.88;;;1.35;;
47519;SDS011;33252;48.122;11.538;2023-02-26T01:59:46;3.17;;;1.23;;
47519;SDS011;33252;48.122;11.538;2023-02-26T02:02:19;3.08;;;1.40;;
47519;SDS011;33252;48.122;11.538;2023-02-26T02:04:46;2.25;;;1.67;;
47519;SDS011;33252;48.122;11.538;2023-02-26T02:07:13;3.17;;;1.60;;
47519;SDS011;33252;48.122;11.538;2023-02-26T02:09:39;2.78;;;1.52;;
47519;SDS011;33252;48.122;11.538;2023-02-26T02:17:56;4.13;;;1.55;;
47519;SDS011;33252;48.122;11.538;2023-02-26T02:28:11;5.32;;;1.15;;
47519;SDS011;33252;48.122;11.538;2023-02-26T02:33:21;3.28;;;1.60;;
47519;SDS011;33252;48.122;11.538;2023-02-26T02:36:01;2.38;;;1.10;;
47519;SDS011;33252;48.122;11.538;2023-02-26T02:38:37;4.25;;;0.80;;
47519;SDS011;33252;48.122;11.538;2023-02-26T02:41:21;3.15;;;1.60;;
47519;SDS011;33252;48.122;11.538;2023-02-26T02:43:53;1.95;;;1.33;;
47519;SDS011;33252;48.122;11.538;2023-02-26T02:46:23;2.53;;;0.82;;
47519;SDS011;33252;48.122;11.538;2023-02-26T02:48:54;3.42;;;1.20;;
47519;SDS011;33252;48.122;11.538;2023-02-26T02:51:30;3.38;;;1.30;;
47519;SDS011;33252;48.122;11.538;2023-02-26T02:54:19;4.20;;;1.20;;
47519;SDS011;33252;48.122;11.538;2023-02-26T02:57:08;4.03;;;1.50;;
47519;SDS011;33252;48.122;11.538;2023-02-26T02:59:43;4.22;;;1.85;;
47519;SDS011;33252;48.122;11.538;2023-02-26T03:05:16;2.58;;;1.10;;
47519;SDS011;33252;48.122;11.538;2023-02-26T03:07:50;5.88;;;2.20;;
47519;SDS011;33252;48.122;11.538;2023-02-26T03:10:20;4.20;;;0.98;;
47519;SDS011;33252;48.122;11.538;2023-02-26T03:12:46;5.65;;;1.35;;
47519;SDS011;33252;48.122;11.538;2023-02-26T03:15:12;2.22;;;1.10;;
47519;SDS011;33252;48.122;11.538;2023-02-26T03:17:45;4.22;;;1.27;;
47519;SDS011;33252;48.122;11.538;2023-02-26T03:23:01;4.35;;;1.42;;
47519;SDS011;33252;48.122;11.538;2023-02-26T03:36:25;2.20;;;0.70;;
47519;SDS011;33252;48.122;11.538;2023-02-26T03:44:07;2.63;;;1.13;;
47519;SDS011;33252;48.122;11.538;2023-02-26T03:46:38;1.75;;;0.82;;
47519;SDS011;33252;48.122;11.538;2023-02-26T03:49:12;3.50;;;1.10;;
47519;SDS011;33252;48.122;11.538;2023-02-26T03:51:44;3.55;;;1.23;;
47519;SDS011;33252;48.122;11.538;2023-02-26T03:54:20;4.05;;;1.00;;
47519;SDS011;33252;48.122;11.538;2023-02-26T03:56:50;3.40;;;1.00;;
47519;SDS011;33252;48.122;11.538;2023-02-26T03:59:16;3.00;;;1.27;;
47519;SDS011;33252;48.122;11.538;2023-02-26T04:01:48;2.70;;;0.93;;
47519;SDS011;33252;48.122;11.538;2023-02-26T04:04:36;2.05;;;0.85;;
47519;SDS011;33252;48.122;11.538;2023-02-26T04:07:10;2.65;;;1.17;;
47519;SDS011;33252;48.122;11.538;2023-02-26T04:09:41;3.00;;;1.27;;
47519;SDS011;33252;48.122;11.538;2023-02-26T04:12:07;4.18;;;1.13;;
47519;SDS011;33252;48.122;11.538;2023-02-26T04:14:33;3.92;;;1.92;;
47519;SDS011;33252;48.122;11.538;2023-02-26T04:16:59;6.70;;;1.63;;
47519;SDS011;33252;48.122;11.538;2023-02-26T04:19:24;5.53;;;1.50;;
47519;SDS011;33252;48.122;11.538;2023-02-26T04:21:50;7.50;;;1.77;;
47519;SDS011;33252;48.122;11.538;2023-02-26T04:24:16;4.60;;;1.73;;
47519;SDS011;33252;48.122;11.538;2023-02-26T04:26:41;4.13;;;1.10;;
47519;SDS011;33252;48.122;11.538;2023-02-26T04:29:07;4.43;;;1.63;;
47519;SDS011;33252;48.122;11.538;2023-02-26T04:31:32;3.95;;;1.55;;
47519;SDS011;33252;48.122;11.538;2023-02-26T04:33:58;5.22;;;1.70;;
47519;SDS011;33252;48.122;11.538;2023-02-26T04:36:24;3.30;;;1.35;;
47519;SDS011;33252;48.122;11.538;2023-02-26T04:38:49;4.57;;;2.03;;
47519;SDS011;33252;48.122;11.538;2023-02-26T04:41:15;2.50;;;1.30;;
47519;SDS011;33252;48.122;11.538;2023-02-26T04:43:41;7.47;;;1.55;;
47519;SDS011;33252;48.122;11.538;2023-02-26T04:46:06;3.67;;;1.33;;
47519;SDS011;33252;48.122;11.538;2023-02-26T04:48:32;2.50;;;1.50;;
47519;SDS011;33252;48.122;11.538;2023-02-26T04:50:57;5.25;;;1.55;;
47519;SDS011;33252;48.122;11.538;2023-02-26T04:53:23;4.60;;;1.13;;
47519;SDS011;33252;48.122;11.538;2023-02-26T04:55:49;4.38;;;1.15;;
47519;SDS011;33252;48.122;11.538;2023-02-26T04:58:15;5.68;;;1.35;;
47519;SDS011;33252;48.122;11.538;2023-02-26T05:00:41;3.15;;;1.17;;
47519;SDS011;33252;48.122;11.538;2023-02-26T05:03:06;2.90;;;1.02;;
47519;SDS011;33252;48.122;11.538;2023-02-26T05:05:34;5.63;;;1.55;;
47519;SDS011;33252;48.122;11.538;2023-02-26T05:08:00;5.40;;;1.38;;
47519;SDS011;33252;48.122;11.538;2023-02-26T05:10:26;3.05;;;1.20;;
47519;SDS011;33252;48.122;11.538;2023-02-26T05:12:51;2.00;;;0.85;;
47519;SDS011;33252;48.122;11.538;2023-02-26T05:15:17;3.85;;;0.82;;
47519;SDS011;33252;48.122;11.538;2023-02-26T05:17:43;6.80;;;1.40;;
47519;SDS011;33252;48.122;11.538;2023-02-26T05:20:09;5.45;;;1.48;;
47519;SDS011;33252;48.122;11.538;2023-02-26T05:22:36;4.10;;;1.30;;
47519;SDS011;33252;48.122;11.538;2023-02-26T05:25:02;3.10;;;1.15;;
47519;SDS011;33252;48.122;11.538;2023-02-26T05:27:29;2.40;;;1.50;;
47519;SDS011;33252;48.122;11.538;2023-02-26T05:29:54;1.88;;;1.20;;
47519;SDS011;33252;48.122;11.538;2023-02-26T05:32:20;4.13;;;1.00;;
47519;SDS011;33252;48.122;11.538;2023-02-26T05:34:46;3.90;;;1.00;;
47519;SDS011;33252;48.122;11.538;2023-02-26T05:37:11;4.90;;;1.23;;
47519;SDS011;33252;48.122;11.538;2023-02-26T05:39:37;2.17;;;0.90;;
47519;SDS011;33252;48.122;11.538;2023-02-26T05:42:05;6.18;;;0.98;;
47519;SDS011;33252;48.122;11.538;2023-02-26T05:44:31;3.08;;;0.95;;
47519;SDS011;33252;48.122;11.538;2023-02-26T05:46:57;2.58;;;0.98;;
47519;SDS011;33252;48.122;11.538;2023-02-26T05:49:23;2.53;;;1.13;;
47519;SDS011;33252;48.122;11.538;2023-02-26T05:51:48;4.68;;;1.35;;
47519;SDS011;33252;48.122;11.538;2023-02-26T05:54:14;4.55;;;1.05;;
47519;SDS011;33252;48.122;11.538;2023-02-26T05:56:40;4.45;;;1.13;;
47519;SDS011;33252;48.122;11.538;2023-02-26T05:59:06;2.85;;;1.10;;
47519;SDS011;33252;48.122;11.538;2023-02-26T06:01:32;3.80;;;1.00;;
47519;SDS011;33252;48.122;11.538;2023-02-26T06:03:58;4.32;;;1.10;;
47519;SDS011;33252;48.122;11.538;2023-02-26T06:06:23;4.18;;;1.25;;
47519;SDS011;33252;48.122;11.538;2023-02-26T06:08:50;5.68;;;1.13;;
47519;SDS011;33252;48.122;11.538;2023-02-26T06:11:16;3.60;;;1.55;;
47519;SDS011;33252;48.122;11.538;2023-02-26T06:13:42;3.58;;;1.02;;
47519;SDS011;33252;48.122;11.538;2023-02-26T06:16:07;3.85;;;1.08;;
47519;SDS011;33252;48.122;11.538;2023-02-26T06:18:33;1.52;;;0.85;;
47519;SDS011;33252;48.122;11.538;2023-02-26T06:20:59;3.70;;;0.90;;
47519;SDS011;33252;48.122;11.538;2023-02-26T06:23:25;2.90;;;0.95;;
47519;SDS011;33252;48.122;11.538;2023-02-26T06:25:51;4.85;;;1.50;;
47519;SDS011;33252;48.122;11.538;2023-02-26T06:28:17;1.85;;;0.73;;
47519;SDS011;33252;48.122;11.538;2023-02-26T06:30:43;3.40;;;1.05;;
47519;SDS011;33252;48.122;11.538;2023-02-26T06:33:09;4.28;;;1.20;;
47519;SDS011;33252;48.122;11.538;2023-02-26T06:35:35;6.93;;;1.27;;
47519;SDS011;33252;48.122;11.538;2023-02-26T06:38:01;2.60;;;0.82;;
47519;SDS011;33252;48.122;11.538;2023-02-26T06:40:26;7.28;;;1.33;;
47519;SDS011;33252;48.122;11.538;2023-02-26T06:42:52;3.72;;;1.10;;
47519;SDS011;33252;48.122;11.538;2023-02-26T06:45:18;2.25;;;0.95;;
47519;SDS011;33252;48.122;11.538;2023-02-26T06:47:44;2.90;;;1.10;;
47519;SDS011;33252;48.122;11.538;2023-02-26T06:50:09;4.25;;;1.63;;
47519;SDS011;33252;48.122;11.538;2023-02-26T06:52:36;2.67;;;1.10;;
47519;SDS011;33252;48.122;11.538;2023-02-26T06:55:02;4.03;;;2.05;;
47519;SDS011;33252;48.122;11.538;2023-02-26T06:57:28;5.15;;;1.27;;
47519;SDS011;33252;48.122;11.538;2023-02-26T06:59:54;1.73;;;1.08;;
47519;SDS011;33252;48.122;11.538;2023-02-26T07:02:22;2.20;;;1.20;;
47519;SDS011;33252;48.122;11.538;2023-02-26T07:04:48;5.03;;;1.38;;
47519;SDS011;33252;48.122;11.538;2023-02-26T07:07:14;2.65;;;1.33;;
47519;SDS011;33252;48.122;11.538;2023-02-26T07:09:40;4.93;;;0.90;;
47519;SDS011;33252;48.122;11.538;2023-02-26T07:12:06;2.35;;;1.13;;
47519;SDS011;33252;48.122;11.538;2023-02-26T07:14:32;3.30;;;1.70;;
47519;SDS011;33252;48.122;11.538;2023-02-26T07:16:59;3.40;;;1.42;;
47519;SDS011;33252;48.122;11.538;2023-02-26T07:19:25;4.50;;;1.00;;
47519;SDS011;33252;48.122;11.538;2023-02-26T07:21:51;5.55;;;1.10;;
47519;SDS011;33252;48.122;11.538;2023-02-26T07:24:20;6.32;;;1.05;;
47519;SDS011;33252;48.122;11.538;2023-02-26T07:26:46;3.00;;;1.42;;
47519;SDS011;33252;48.122;11.538;2023-02-26T07:29:11;2.13;;;1.35;;
47519;SDS011;33252;48.122;11.538;2023-02-26T07:31:37;3.28;;;1.33;;
47519;SDS011;33252;48.122;11.538;2023-02-26T07:34:03;4.35;;;1.92;;
47519;SDS011;33252;48.122;11.538;2023-02-26T07:36:30;4.22;;;1.17;;
47519;SDS011;33252;48.122;11.538;2023-02-26T07:38:55;3.63;;;1.38;;
47519;SDS011;33252;48.122;11.538;2023-02-26T07:41:21;3.60;;;1.20;;
47519;SDS011;33252;48.122;11.538;2023-02-26T07:43:47;2.85;;;1.30;;
47519;SDS011;33252;48.122;11.538;2023-02-26T07:46:12;3.00;;;0.90;;
47519;SDS011;33252;48.122;11.538;2023-02-26T07:48:38;2.53;;;1.40;;
47519;SDS011;33252;48.122;11.538;2023-02-26T07:51:05;3.97;;;1.10;;
47519;SDS011;33252;48.122;11.538;2023-02-26T07:53:32;4.75;;;1.50;;
47519;SDS011;33252;48.122;11.538;2023-02-26T07:55:58;2.75;;;1.58;;
47519;SDS011;33252;48.122;11.538;2023-02-26T07:58:23;2.10;;;1.42;;
47519;SDS011;33252;48.122;11.538;2023-02-26T08:00:49;6.50;;;1.25;;
47519;SDS011;33252;48.122;11.538;2023-02-26T08:03:16;2.38;;;1.25;;
47519;SDS011;33252;48.122;11.538;2023-02-26T08:05:43;3.20;;;1.38;;
47519;SDS011;33252;48.122;11.538;2023-02-26T08:08:08;2.20;;;1.40;;
47519;SDS011;33252;48.122;11.538;2023-02-26T08:10:34;3.92;;;1.75;;
47519;SDS011;33252;48.122;11.538;2023-02-26T08:13:00;1.63;;;1.30;;
47519;SDS011;33252;48.122;11.538;2023-02-26T08:15:26;4.00;;;1.40;;
47519;SDS011;33252;48.122;11.538;2023-02-26T08:17:52;3.03;;;1.17;;
47519;SDS011;33252;48.122;11.538;2023-02-26T08:20:18;2.22;;;1.30;;
47519;SDS011;33252;48.122;11.538;2023-02-26T08:22:44;4.63;;;2.03;;
47519;SDS011;33252;48.122;11.538;2023-02-26T08:25:09;2.50;;;1.58;;
47519;SDS011;33252;48.122;11.538;2023-02-26T08:27:36;1.98;;;1.27;;
47519;SDS011;33252;48.122;11.538;2023-02-26T08:30:02;2.88;;;1.38;;
47519;SDS011;33252;48.122;11.538;2023-02-26T08:32:29;1.77;;;1.30;;
47519;SDS011;33252;48.122;11.538;2023-02-26T08:34:55;3.58;;;1.95;;
47519;SDS011;33252;48.122;11.538;2023-02-26T08:37:20;3.13;;;1.70;;
47519;SDS011;33252;48.122;11.538;2023-02-26T08:39:50;3.15;;;1.92;;
47519;SDS011;33252;48.122;11.538;2023-02-26T08:42:16;3.25;;;1.55;;
47519;SDS011;33252;48.122;11.538;2023-02-26T08:44:44;5.38;;;2.05;;
47519;SDS011;33252;48.122;11.538;2023-02-26T08:47:10;3.40;;;1.70;;
47519;SDS011;33252;48.122;11.538;2023-02-26T08:49:36;4.30;;;1.83;;
47519;SDS011;33252;48.122;11.538;2023-02-26T08:52:02;3.22;;;2.17;;
47519;SDS011;33252;48.122;11.538;2023-02-26T08:54:28;3.05;;;2.10;;
47519;SDS011;33252;48.122;11.538;2023-02-26T08:56:53;2.83;;;2.17;;
47519;SDS011;33252;48.122;11.538;2023-02-26T08:59:21;4.50;;;2.22;;
47519;SDS011;33252;48.122;11.538;2023-02-26T09:01:48;6.38;;;2.33;;
47519;SDS011;33252;48.122;11.538;2023-02-26T09:04:13;3.28;;;2.08;;
47519;SDS011;33252;48.122;11.538;2023-02-26T09:06:39;3.08;;;1.95;;
47519;SDS011;33252;48.122;11.538;2023-02-26T09:09:05;3.60;;;1.80;;
47519;SDS011;33252;48.122;11.538;2023-02-26T09:11:31;4.90;;;1.83;;
47519;SDS011;33252;48.122;11.538;2023-02-26T09:13:57;3.67;;;2.13;;
47519;SDS011;33252;48.122;11.538;2023-02-26T09:16:23;4.03;;;2.00;;
47519;SDS011;33252;48.122;11.538;2023-02-26T09:18:49;3.65;;;1.95;;
47519;SDS011;33252;48.122;11.538;2023-02-26T09:21:15;3.13;;;2.13;;
47519;SDS011;33252;48.122;11.538;2023-02-26T09:23:41;4.35;;;2.67;;
47519;SDS011;33252;48.122;11.538;2023-02-26T09:26:06;5.30;;;2.67;;
47519;SDS011;33252;48.122;11.538;2023-02-26T09:28:33;3.10;;;2.00;;
47519;SDS011;33252;48.122;11.538;2023-02-26T09:30:58;3.05;;;1.90;;
47519;SDS011;33252;48.122;11.538;2023-02-26T09:33:24;2.58;;;2.13;;
47519;SDS011;33252;48.122;11.538;2023-02-26T09:35:50;3.03;;;2.15;;
47519;SDS011;33252;48.122;11.538;2023-02-26T09:38:16;2.83;;;2.00;;
47519;SDS011;33252;48.122;11.538;2023-02-26T09:40:47;3.22;;;2.33;;
47519;SDS011;33252;48.122;11.538;2023-02-26T09:47:08;5.45;;;2.92;;
47519;SDS011;33252;48.122;11.538;2023-02-26T09:51:37;4.43;;;2.75;;
47519;SDS011;33252;48.122;11.538;2023-02-26T09:54:08;3.42;;;2.55;;
47519;SDS011;33252;48.122;11.538;2023-02-26T09:56:41;6.10;;;3.00;;
47519;SDS011;33252;48.122;11.538;2023-02-26T10:07:55;4.33;;;3.43;;
47519;SDS011;33252;48.122;11.538;2023-02-26T10:13:44;4.28;;;2.90;;
47519;SDS011;33252;48.122;11.538;2023-02-26T10:16:11;4.10;;;2.80;;
47519;SDS011;33252;48.122;11.538;2023-02-26T10:18:47;3.83;;;3.15;;
47519;SDS011;33252;48.122;11.538;2023-02-26T10:21:22;3.95;;;3.20;;
47519;SDS011;33252;48.122;11.538;2023-02-26T10:24:28;4.50;;;2.70;;
47519;SDS011;33252;48.122;11.538;2023-02-26T10:30:13;6.38;;;3.30;;
47519;SDS011;33252;48.122;11.538;2023-02-26T10:35:15;6.72;;;3.63;;
47519;SDS011;33252;48.122;11.538;2023-02-26T10:38:02;3.38;;;2.63;;
47519;SDS011;33252;48.122;11.538;2023-02-26T10:40:46;5.00;;;3.05;;
47519;SDS011;33252;48.122;11.538;2023-02-26T10:43:18;5.75;;;4.28;;
47519;SDS011;33252;48.122;11.538;2023-02-26T10:51:23;3.13;;;2.40;;
47519;SDS011;33252;48.122;11.538;2023-02-26T10:56:45;2.95;;;2.60;;
47519;SDS011;33252;48.122;11.538;2023-02-26T10:59:10;3.78;;;3.33;;
47519;SDS011;33252;48.122;11.538;2023-02-26T11:01:37;4.05;;;2.92;;
47519;SDS011;33252;48.122;11.538;2023-02-26T11:04:13;4.00;;;2.83;;
47519;SDS011;33252;48.122;11.538;2023-02-26T11:06:47;3.53;;;2.65;;
47519;SDS011;33252;48.122;11.538;2023-02-26T11:09:25;3.70;;;2.35;;
47519;SDS011;33252;48.122;11.538;2023-02-26T11:14:39;3.67;;;2.65;;
47519;SDS011;33252;48.122;11.538;2023-02-26T11:17:13;3.85;;;2.63;;
47519;SDS011;33252;48.122;11.538;2023-02-26T11:19:51;3.10;;;2.33;;
47519;SDS011;33252;48.122;11.538;2023-02-26T11:22:32;5.25;;;2.55;;
47519;SDS011;33252;48.122;11.538;2023-02-26T11:25:00;4.88;;;2.55;;
47519;SDS011;33252;48.122;11.538;2023-02-26T11:27:33;2.97;;;2.60;;
47519;SDS011;33252;48.122;11.538;2023-02-26T11:30:05;4.53;;;2.95;;
47519;SDS011;33252;48.122;11.538;2023-02-26T11:32:40;3.17;;;2.60;;
47519;SDS011;33252;48.122;11.538;2023-02-26T11:35:12;3.25;;;2.42;;
47519;SDS011;33252;48.122;11.538;2023-02-26T11:37:39;3.00;;;2.28;;
47519;SDS011;33252;48.122;11.538;2023-02-26T11:40:12;4.35;;;2.58;;
47519;SDS011;33252;48.122;11.538;2023-02-26T11:42:47;3.15;;;2.28;;
47519;SDS011;33252;48.122;11.538;2023-02-26T11:45:18;4.03;;;2.38;;
47519;SDS011;33252;48.122;11.538;2023-02-26T11:47:45;3.90;;;2.30;;
47519;SDS011;33252;48.122;11.538;2023-02-26T11:50:21;2.38;;;2.17;;
47519;SDS011;33252;48.122;11.538;2023-02-26T11:52:53;3.58;;;3.28;;
47519;SDS011;33252;48.122;11.538;2023-02-26T11:55:21;3.10;;;2.42;;
47519;SDS011;33252;48.122;11.538;2023-02-26T11:58:00;3.72;;;2.60;;
47519;SDS011;33252;48.122;11.538;2023-02-26T12:00:40;3.67;;;2.83;;
47519;SDS011;33252;48.122;11.538;2023-02-26T12:03:09;3.50;;;3.20;;
47519;SDS011;33252;48.122;11.538;2023-02-26T12:05:41;3.05;;;2.28;;
47519;SDS011;33252;48.122;11.538;2023-02-26T12:08:12;3.15;;;2.45;;
47519;SDS011;33252;48.122;11.538;2023-02-26T12:10:59;2.97;;;2.05;;
47519;SDS011;33252;48.122;11.538;2023-02-26T12:13:35;1.60;;;1.40;;
47519;SDS011;33252;48.122;11.538;2023-02-26T12:35:36;4.28;;;2.20;;
47519;SDS011;33252;48.122;11.538;2023-02-26T12:46:37;3.05;;;1.80;;
47519;SDS011;33252;48.122;11.538;2023-02-26T12:49:15;2.10;;;1.50;;
47519;SDS011;33252;48.122;11.538;2023-02-26T12:52:09;1.92;;;1.38;;
47519;SDS011;33252;48.122;11.538;2023-02-26T13:00:46;2.25;;;1.00;;
47519;SDS011;33252;48.122;11.538;2023-02-26T13:09:01;2.15;;;1.30;;
47519;SDS011;33252;48.122;11.538;2023-02-26T13:17:18;1.30;;;1.15;;
47519;SDS011;33252;48.122;11.538;2023-02-26T13:19:56;1.83;;;1.30;;
47519;SDS011;33252;48.122;11.538;2023-02-26T13:22:34;1.67;;;1.15;;
47519;SDS011;33252;48.122;11.538;2023-02-26T13:27:38;1.58;;;1.10;;
47519;SDS011;33252;48.122;11.538;2023-02-26T13:32:52;2.42;;;1.65;;
47519;SDS011;33252;48.122;11.538;2023-02-26T13:38:02;3.53;;;2.50;;
47519;SDS011;33252;48.122;11.538;2023-02-26T13:46:26;2.92;;;1.85;;
47519;SDS011;33252;48.122;11.538;2023-02-26T13:52:23;2.28;;;1.60;;
47519;SDS011;33252;48.122;11.538;2023-02-26T13:54:52;2.55;;;1.52;;
47519;SDS011;33252;48.122;11.538;2023-02-26T14:04:59;1.73;;;1.40;;
47519;SDS011;33252;48.122;11.538;2023-02-26T14:10:28;2.22;;;1.27;;
47519;SDS011;33252;48.122;11.538;2023-02-26T14:13:17;2.40;;;1.48;;
47519;SDS011;33252;48.122;11.538;2023-02-26T14:24:05;2.63;;;1.40;;
47519;SDS011;33252;48.122;11.538;2023-02-26T14:27:03;4.70;;;1.60;;
47519;SDS011;33252;48.122;11.538;2023-02-26T14:29:55;2.88;;;1.50;;
47519;SDS011;33252;48.122;11.538;2023-02-26T14:32:49;2.65;;;1.42;;
47519;SDS011;33252;48.122;11.538;2023-02-26T14:38:42;2.35;;;1.65;;
47519;SDS011;33252;48.122;11.538;2023-02-26T14:40:55;2.13;;;1.60;;
47519;SDS011;33252;48.122;11.538;2023-02-26T14:43:39;2.65;;;1.63;;
47519;SDS011;33252;48.122;11.538;2023-02-26T14:46:07;2.97;;;1.60;;
47519;SDS011;33252;48.122;11.538;2023-02-26T14:48:35;1.60;;;1.30;;
47519;SDS011;33252;48.122;11.538;2023-02-26T14:56:50;2.40;;;1.45;;
47519;SDS011;33252;48.122;11.538;2023-02-26T14:59:20;1.95;;;1.50;;
47519;SDS011;33252;48.122;11.538;2023-02-26T15:04:43;1.90;;;1.23;;
47519;SDS011;33252;48.122;11.538;2023-02-26T15:07:33;3.50;;;1.52;;
47519;SDS011;33252;48.122;11.538;2023-02-26T15:23:57;2.45;;;1.15;;
47519;SDS011;33252;48.122;11.538;2023-02-26T15:26:28;1.90;;;1.20;;
47519;SDS011;33252;48.122;11.538;2023-02-26T15:28:58;5.03;;;1.05;;
47519;SDS011;33252;48.122;11.538;2023-02-26T15:31:33;5.13;;;1.77;;
47519;SDS011;33252;48.122;11.538;2023-02-26T15:34:01;2.17;;;1.10;;
47519;SDS011;33252;48.122;11.538;2023-02-26T15:36:27;2.65;;;1.63;;
47519;SDS011;33252;48.122;11.538;2023-02-26T15:38:56;2.67;;;1.20;;
47519;SDS011;33252;48.122;11.538;2023-02-26T15:41:26;3.42;;;1.63;;
47519;SDS011;33252;48.122;11.538;2023-02-26T15:43:56;3.22;;;1.70;;
47519;SDS011;33252;48.122;11.538;2023-02-26T15:46:30;2.05;;;1.25;;
47519;SDS011;33252;48.122;11.538;2023-02-26T15:49:19;1.88;;;1.35;;
47519;SDS011;33252;48.122;11.538;2023-02-26T15:51:56;1.92;;;1.25;;
47519;SDS011;33252;48.122;11.538;2023-02-26T15:54:24;2.78;;;1.70;;
47519;SDS011;33252;48.122;11.538;2023-02-26T15:57:19;2.38;;;1.67;;
47519;SDS011;33252;48.122;11.538;2023-02-26T15:59:49;3.58;;;1.45;;
47519;SDS011;33252;48.122;11.538;2023-02-26T16:02:20;3.83;;;2.15;;
47519;SDS011;33252;48.122;11.538;2023-02-26T16:04:49;2.97;;;1.80;;
47519;SDS011;33252;48.122;11.538;2023-02-26T16:07:17;4.20;;;2.08;;
47519;SDS011;33252;48.122;11.538;2023-02-26T16:09:45;4.57;;;1.63;;
47519;SDS011;33252;48.122;11.538;2023-02-26T16:12:13;2.67;;;1.45;;
47519;SDS011;33252;48.122;11.538;2023-02-26T16:14:43;2.90;;;1.88;;
47519;SDS011;33252;48.122;11.538;2023-02-26T16:17:15;2.72;;;1.67;;
47519;SDS011;33252;48.122;11.538;2023-02-26T16:19:49;2.95;;;2.08;;
47519;SDS011;33252;48.122;11.538;2023-02-26T16:25:07;4.15;;;1.80;;
47519;SDS011;33252;48.122;11.538;2023-02-26T16:27:42;4.57;;;2.30;;
47519;SDS011;33252;48.122;11.538;2023-02-26T16:30:16;2.53;;;1.75;;
47519;SDS011;33252;48.122;11.538;2023-02-26T16:32:46;3.67;;;2.35;;
47519;SDS011;33252;48.122;11.538;2023-02-26T16:35:19;4.13;;;2.70;;
47519;SDS011;33252;48.122;11.538;2023-02-26T16:37:46;4.15;;;2.05;;
47519;SDS011;33252;48.122;11.538;2023-02-26T16:45:16;2.38;;;1.00;;
47519;SDS011;33252;48.122;11.538;2023-02-26T16:47:44;3.38;;;1.30;;
47519;SDS011;33252;48.122;11.538;2023-02-26T16:50:14;1.92;;;1.00;;
47519;SDS011;33252;48.122;11.538;2023-02-26T16:52:57;2.17;;;1.35;;
47519;SDS011;33252;48.122;11.538;2023-02-26T16:55:26;5.00;;;1.20;;
47519;SDS011;33252;48.122;11.538;2023-02-26T16:57:55;2.38;;;1.30;;
47519;SDS011;33252;48.122;11.538;2023-02-26T17:00:22;4.30;;;2.53;;
47519;SDS011;33252;48.122;11.538;2023-02-26T17:02:56;6.22;;;2.83;;
47519;SDS011;33252;48.122;11.538;2023-02-26T17:05:29;6.97;;;2.88;;
47519;SDS011;33252;48.122;11.538;2023-02-26T17:08:05;3.58;;;1.88;;
47519;SDS011;33252;48.122;11.538;2023-02-26T17:10:38;3.42;;;2.00;;
47519;SDS011;33252;48.122;11.538;2023-02-26T17:15:49;3.17;;;2.13;;
47519;SDS011;33252;48.122;11.538;2023-02-26T17:18:15;3.40;;;2.08;;
47519;SDS011;33252;48.122;11.538;2023-02-26T17:20:41;2.65;;;1.80;;
47519;SDS011;33252;48.122;11.538;2023-02-26T17:23:09;3.25;;;2.42;;
47519;SDS011;33252;48.122;11.538;2023-02-26T17:25:39;4.15;;;2.40;;
47519;SDS011;33252;48.122;11.538;2023-02-26T17:28:06;3.75;;;3.28;;
47519;SDS011;33252;48.122;11.538;2023-02-26T17:30:36;4.50;;;2.00;;
47519;SDS011;33252;48.122;11.538;2023-02-26T17:33:02;2.50;;;1.50;;
47519;SDS011;33252;48.122;11.538;2023-02-26T17:35:28;3.75;;;2.42;;
47519;SDS011;33252;48.122;11.538;2023-02-26T17:37:55;5.28;;;2.03;;
47519;SDS011;33252;48.122;11.538;2023-02-26T17:40:23;5.50;;;3.03;;
47519;SDS011;33252;48.122;11.538;2023-02-26T17:42:53;2.60;;;1.75;;
47519;SDS011;33252;48.122;11.538;2023-02-26T17:45:19;2.90;;;2.05;;
47519;SDS011;33252;48.122;11.538;2023-02-26T17:47:45;3.95;;;2.25;;
47519;SDS011;33252;48.122;11.538;2023-02-26T17:53:17;5.38;;;2.40;;
47519;SDS011;33252;48.122;11.538;2023-02-26T17:55:44;4.05;;;1.80;;
47519;SDS011;33252;48.122;11.538;2023-02-26T17:58:18;4.28;;;1.95;;
47519;SDS011;33252;48.122;11.538;2023-02-26T18:00:57;3.25;;;2.15;;
47519;SDS011;33252;48.122;11.538;2023-02-26T18:03:23;3.03;;;2.25;;
47519;SDS011;33252;48.122;11.538;2023-02-26T18:05:50;3.80;;;2.13;;
47519;SDS011;33252;48.122;11.538;2023-02-26T18:10:55;8.63;;;3.00;;
47519;SDS011;33252;48.122;11.538;2023-02-26T18:13:22;6.30;;;2.97;;
47519;SDS011;33252;48.122;11.538;2023-02-26T18:15:48;4.57;;;2.67;;
47519;SDS011;33252;48.122;11.538;2023-02-26T18:18:22;5.95;;;2.00;;
47519;SDS011;33252;48.122;11.538;2023-02-26T18:20:49;2.97;;;2.20;;
47519;SDS011;33252;48.122;11.538;2023-02-26T18:23:15;2.53;;;1.70;;
47519;SDS011;33252;48.122;11.538;2023-02-26T18:25:42;6.63;;;2.42;;